Time;durP1;ratioP1;P1;durP2;ratioP2;P2;SDS_P1;SDS_P2;PMS_P1;PMS_P2;Temp;Humidity;BMP_temperature;BMP_pressure;BME280_temperature;BME280_humidity;BME280_pressure;Samples;Min_cycle;Max_cycle;Signal;HPM_P1;HPM_P2
2023/02/15 00:01:16;;;;;;;;;83.75;57.50;;;;;6.45;100.00;102476.38;5018648;28;65379;-79
2023/02/15 00:03:41;;;;;;;;;85.50;60.00;;;;;6.44;100.00;102472.03;5037261;28;45321;-80
2023/02/15 00:06:07;;;;;;;;;86.00;59.00;;;;;6.42;100.00;102468.56;5036375;28;68486;-79
2023/02/15 00:08:32;;;;;;;;;84.25;61.50;;;;;6.43;100.00;102472.91;5018864;28;45442;-80
2023/02/15 00:11:05;;;;;;;;;79.25;57.50;;;;;6.37;100.00;102465.88;5036618;28;63241;-80
2023/02/15 00:13:30;;;;;;;;;86.75;62.00;;;;;6.29;100.00;102457.16;5037215;28;45313;-80
2023/02/15 00:16:03;;;;;;;;;82.00;57.00;;;;;6.25;100.00;102456.22;5019020;28;46303;-80
2023/02/15 00:18:29;;;;;;;;;82.75;60.75;;;;;6.26;100.00;102452.81;5002687;28;45685;-80
2023/02/15 00:20:54;;;;;;;;;88.75;58.25;;;;;6.24;100.00;102451.03;5020045;28;45324;-80
2023/02/15 00:23:19;;;;;;;;;84.00;61.25;;;;;6.22;100.00;102447.53;5018733;28;51513;-79
2023/02/15 00:25:45;;;;;;;;;70.75;53.75;;;;;6.21;100.00;102457.03;5036466;28;64248;-79
2023/02/15 00:28:10;;;;;;;;;83.25;60.00;;;;;6.17;100.00;102437.13;5018634;28;57198;-79
2023/02/15 00:30:35;;;;;;;;;82.25;61.25;;;;;6.17;100.00;102442.31;5018455;28;62995;-79
2023/02/15 00:33:01;;;;;;;;;87.25;60.50;;;;;6.13;100.00;102441.38;5036153;28;62351;-80
2023/02/15 00:35:26;;;;;;;;;82.50;58.25;;;;;6.14;100.00;102440.53;5036683;28;46651;-79
2023/02/15 00:37:52;;;;;;;;;85.67;64.00;;;;;6.05;100.00;102426.56;5017861;28;68704;-80
2023/02/15 00:40:17;;;;;;;;;86.00;61.25;;;;;6.05;100.00;102427.44;5036880;28;45339;-79
2023/02/15 00:42:43;;;;;;;;;86.25;61.25;;;;;6.08;100.00;102426.63;5036814;28;45572;-80
2023/02/15 00:45:09;;;;;;;;;88.75;65.75;;;;;6.01;100.00;102430.81;5036396;28;45347;-80
2023/02/15 00:47:34;;;;;;;;;84.75;62.00;;;;;5.95;100.00;102428.09;5018783;28;45458;-80
2023/02/15 00:49:59;;;;;;;;;81.75;61.00;;;;;5.92;100.00;102423.75;5036138;28;56268;-80
2023/02/15 00:52:24;;;;;;;;;87.33;63.33;;;;;5.91;100.00;102419.44;5017708;28;65129;-80
2023/02/15 00:54:50;;;;;;;;;91.25;65.50;;;;;5.91;100.00;102419.44;5001121;28;67983;-80
2023/02/15 00:57:15;;;;;;;;;97.50;62.75;;;;;5.90;100.00;102421.97;5036522;28;52521;-80
2023/02/15 00:59:41;;;;;;;;;91.00;64.00;;;;;5.92;100.00;102425.47;5036796;28;45493;-80
2023/02/15 01:02:06;;;;;;;;;101.00;71.00;;;;;5.91;100.00;102422.00;5036708;28;45431;-80
2023/02/15 01:04:31;;;;;;;;;91.75;66.00;;;;;5.90;100.00;102427.16;5036138;28;52039;-80
2023/02/15 01:06:57;;;;;;;;;91.67;65.33;;;;;5.82;100.00;102408.94;5035371;28;64652;-80
2023/02/15 01:09:22;;;;;;;;;87.25;63.00;;;;;5.91;100.00;102422.00;5036384;28;45426;-80
2023/02/15 01:11:47;;;;;;;;;86.25;64.00;;;;;5.90;100.00;102422.84;5036352;28;45346;-79
2023/02/15 01:14:14;;;;;;;;;87.50;63.25;;;;;5.84;100.00;102416.72;5034962;28;69416;-80
2023/02/15 01:16:39;;;;;;;;;89.50;60.50;;;;;5.83;100.00;102426.16;5018077;28;45322;-79
2023/02/15 01:19:05;;;;;;;;;94.25;64.25;;;;;5.81;100.00;102428.75;5035791;28;52311;-80
2023/02/15 01:21:34;;;;;;;;;90.00;65.50;;;;;5.80;100.00;102429.56;5035548;28;45440;-80
2023/02/15 01:23:59;;;;;;;;;92.00;66.50;;;;;5.79;100.00;102416.63;5036142;28;46032;-80
2023/02/15 01:26:25;;;;;;;;;87.50;65.25;;;;;5.82;100.00;102422.72;5018148;28;45458;-80
2023/02/15 01:28:50;;;;;;;;;93.50;66.25;;;;;5.78;100.00;102420.06;5035966;28;45371;-80
2023/02/15 01:31:17;;;;;;;;;89.25;67.75;;;;;5.76;100.00;102414.88;5035985;28;45386;-79
2023/02/15 01:33:45;;;;;;;;;91.00;66.25;;;;;5.74;100.00;102408.81;5036025;28;46629;-80
2023/02/15 01:36:10;;;;;;;;;91.00;66.25;;;;;5.74;100.00;102421.72;5017636;28;45387;-80
2023/02/15 01:38:36;;;;;;;;;91.00;65.75;;;;;5.67;100.00;102406.09;5035814;28;45431;-80
2023/02/15 01:41:22;;;;;;;;;86.75;63.00;;;;;5.69;100.00;102422.47;5018048;28;45313;-80
2023/02/15 01:43:51;;;;;;;;;92.50;67.00;;;;;5.63;100.00;102426.69;5035591;28;45514;-80
2023/02/15 01:46:18;;;;;;;;;94.00;64.00;;;;;5.56;100.00;102414.50;5017835;28;45363;-80
2023/02/15 01:48:48;;;;;;;;;85.75;64.75;;;;;5.59;100.00;102424.00;5017987;28;45467;-80
2023/02/15 01:51:18;;;;;;;;;85.75;63.25;;;;;5.56;100.00;102411.91;4997806;28;45483;-80
2023/02/15 01:54:01;;;;;;;;;81.25;62.50;;;;;5.55;100.00;102414.47;4998105;28;45648;-80
2023/02/15 01:56:33;;;;;;;;;78.00;58.25;;;;;5.50;100.00;102408.31;5015740;28;45755;-80
2023/02/15 01:59:00;;;;;;;;;89.50;66.00;;;;;5.50;100.00;102414.38;4997978;28;45276;-80
2023/02/15 02:01:27;;;;;;;;;97.25;68.75;;;;;5.40;100.00;102413.34;4998205;28;45423;-80
2023/02/15 02:04:04;;;;;;;;;90.25;64.75;;;;;5.41;100.00;102409.91;5006862;28;46575;-80
2023/02/15 02:06:31;;;;;;;;;89.25;65.00;;;;;5.35;100.00;102411.47;5027349;28;45774;-80
2023/02/15 02:08:57;;;;;;;;;90.25;67.75;;;;;5.28;100.00;102401.91;4998691;28;45419;-80
2023/02/15 02:11:23;;;;;;;;;95.50;68.25;;;;;5.29;100.00;102403.63;5016150;28;45551;-80
2023/02/15 02:13:50;;;;;;;;;99.50;68.25;;;;;5.20;100.00;102389.72;5016103;28;45453;-80
2023/02/15 02:16:27;;;;;;;;;92.00;70.00;;;;;5.22;100.00;102410.41;5015792;28;45822;-80
2023/02/15 02:19:23;;;;;;;;;88.50;63.50;;;;;5.18;100.00;102408.56;4997738;28;45375;-80
2023/02/15 02:21:51;;;;;;;;;92.50;67.50;;;;;5.13;100.00;102410.22;5024242;28;45438;-80
2023/02/15 02:24:28;;;;;;;;;98.00;71.00;;;;;5.11;100.00;102401.53;5035412;28;46361;-80
2023/02/15 02:27:42;;;;;;;;;94.00;68.00;;;;;5.04;100.00;102401.44;5035274;28;45774;-80
2023/02/15 02:30:45;;;;;;;;;89.50;65.00;;;;;5.05;100.00;102402.28;4938109;28;45370;-80
2023/02/15 02:33:24;;;;;;;;;95.25;66.00;;;;;5.02;100.00;102386.75;4954032;28;45710;-81
2023/02/15 02:36:17;;;;;;;;;93.75;67.75;;;;;5.01;100.00;102391.06;4953863;28;46192;-81
2023/02/15 02:38:57;;;;;;;;;94.50;68.00;;;;;4.97;100.00;102391.81;4954007;28;45981;-80
2023/02/15 02:41:28;;;;;;;;;93.50;66.75;;;;;4.97;100.00;102389.22;4938085;28;45454;-80
2023/02/15 02:44:12;;;;;;;;;97.25;69.50;;;;;4.97;100.00;102386.66;4954060;28;45589;-80
2023/02/15 02:46:41;;;;;;;;;92.75;69.00;;;;;4.95;100.00;102384.88;4953639;28;47373;-80
2023/02/15 02:49:06;;;;;;;;;96.00;68.50;;;;;4.91;100.00;102376.22;4953406;28;45349;-80
2023/02/15 02:51:31;;;;;;;;;89.25;68.75;;;;;4.88;100.00;102380.44;4954112;28;45405;-80
2023/02/15 02:54:00;;;;;;;;;93.25;67.25;;;;;4.89;100.00;102385.63;4953270;28;50687;-80
2023/02/15 02:56:32;;;;;;;;;94.75;69.75;;;;;4.89;100.00;102375.31;4953871;28;46424;-80
2023/02/15 02:59:18;;;;;;;;;93.00;66.75;;;;;4.85;100.00;102376.97;4937656;28;45543;-80
2023/02/15 03:01:59;;;;;;;;;94.50;71.50;;;;;4.84;100.00;102375.19;5008566;28;45469;-80
2023/02/15 03:04:28;;;;;;;;;89.25;65.75;;;;;4.81;100.00;102374.25;5015053;28;45658;-80
2023/02/15 03:07:01;;;;;;;;;97.50;68.00;;;;;4.79;100.00;102384.56;4997263;28;46859;-80
2023/02/15 03:09:43;;;;;;;;;85.50;67.00;;;;;4.80;100.00;102390.59;4996884;28;45870;-80
2023/02/15 03:12:14;;;;;;;;;97.50;67.25;;;;;4.74;100.00;102383.59;4998551;28;45351;-80
2023/02/15 03:14:43;;;;;;;;;92.25;66.50;;;;;4.75;100.00;102387.03;4996822;28;45329;-80
2023/02/15 03:17:09;;;;;;;;;90.00;65.50;;;;;4.75;100.00;102393.06;4998200;28;46396;-80
2023/02/15 03:19:36;;;;;;;;;79.00;55.00;;;;;4.71;100.00;102391.25;4999356;28;67249;-80
2023/02/15 03:22:15;;;;;;;;;89.50;66.50;;;;;4.59;100.00;102376.41;5010855;28;45312;-80
2023/02/15 03:25:03;;;;;;;;;91.50;68.25;;;;;4.66;100.00;102385.13;5020184;28;45466;-80
2023/02/15 03:27:38;;;;;;;;;98.50;67.50;;;;;4.53;100.00;102365.06;5019305;28;47769;-80
2023/02/15 03:30:05;;;;;;;;;95.25;68.25;;;;;4.60;100.00;102378.13;5019952;28;45380;-80
2023/02/15 03:32:32;;;;;;;;;89.25;66.25;;;;;4.54;100.00;102375.41;5019742;28;45410;-80
2023/02/15 03:34:58;;;;;;;;;87.75;65.75;;;;;4.57;100.00;102384.91;5019928;28;45479;-80
2023/02/15 03:37:26;;;;;;;;;90.50;67.00;;;;;4.54;100.00;102379.72;5019242;28;67118;-80
2023/02/15 03:39:56;;;;;;;;;88.00;65.50;;;;;4.47;100.00;102365.78;5019873;28;45712;-80
2023/02/15 03:42:31;;;;;;;;;95.75;70.00;;;;;4.46;100.00;102369.22;5019936;28;45478;-80
2023/02/15 03:45:02;;;;;;;;;89.75;67.50;;;;;4.43;100.00;102364.84;5019603;28;45464;-80
2023/02/15 03:47:46;;;;;;;;;90.75;65.00;;;;;4.40;100.00;102376.81;5019648;28;47142;-80
2023/02/15 03:53:08;;;;;;;;;96.00;68.00;;;;;4.28;100.00;102371.38;5035497;28;45484;-80
2023/02/15 03:55:34;;;;;;;;;96.50;70.50;;;;;4.22;100.00;102374.69;5020865;28;45485;-79
2023/02/15 04:04:01;;;;;;;;;97.25;67.50;;;;;4.12;100.00;102368.44;5022540;28;45416;-79
2023/02/15 04:06:26;;;;;;;;;92.50;67.50;;;;;4.13;100.00;102379.63;5019723;28;45499;-80
2023/02/15 04:11:35;;;;;;;;;92.00;66.50;;;;;4.12;100.00;102378.72;5037490;28;45780;-79
2023/02/15 04:16:02;;;;;;;;;92.00;66.25;;;;;4.11;100.00;102376.16;5036367;28;62622;-80
2023/02/15 04:16:46;;;;;;;;;93.25;66.75;;;;;4.08;100.00;102366.63;5037269;28;45505;-80
2023/02/15 04:27:23;;;;;;;;;92.25;61.00;;;;;4.02;100.00;102372.50;5037025;28;45335;-80
2023/02/15 04:29:49;;;;;;;;;85.33;66.33;;;;;4.00;100.00;102368.16;5017873;28;72270;-80
2023/02/15 04:32:15;;;;;;;;;91.75;68.25;;;;;3.96;100.00;102362.06;5036900;28;45430;-80
2023/02/15 04:34:40;;;;;;;;;93.50;67.75;;;;;3.88;100.00;102359.28;5019043;28;46421;-80
2023/02/15 04:37:05;;;;;;;;;92.33;65.33;;;;;3.93;100.00;102371.41;5036165;28;65114;-80
2023/02/15 04:39:31;;;;;;;;;81.00;63.00;;;;;3.81;100.00;102356.53;5018990;28;49348;-80
2023/02/15 04:41:57;;;;;;;;;90.25;61.25;;;;;3.85;100.00;102366.94;5036926;28;45967;-80
2023/02/15 04:44:22;;;;;;;;;83.00;62.50;;;;;3.88;100.00;102373.84;5036344;28;45394;-80
2023/02/15 04:46:48;;;;;;;;;90.25;63.00;;;;;3.88;100.00;102377.31;5036139;28;56345;-79
2023/02/15 04:49:13;;;;;;;;;89.25;60.25;;;;;3.91;100.00;102371.38;5031706;28;66713;-80
2023/02/15 04:51:38;;;;;;;;;85.75;64.50;;;;;4.02;100.00;102377.66;5016669;28;45395;-80
2023/02/15 04:54:04;;;;;;;;;92.25;67.25;;;;;4.07;100.00;102375.19;5016232;28;48169;-80
2023/02/15 04:56:29;;;;;;;;;86.50;60.25;;;;;4.08;100.00;102364.91;5016468;28;48855;-80
2023/02/15 04:58:55;;;;;;;;;96.00;66.75;;;;;4.08;100.00;102362.31;4998449;28;46479;-79
2023/02/15 05:01:20;;;;;;;;;89.75;65.25;;;;;4.04;100.00;102357.06;4998718;28;45470;-79
2023/02/15 05:03:46;;;;;;;;;85.75;59.00;;;;;4.05;100.00;102364.00;4998507;28;46512;-80
2023/02/15 05:06:11;;;;;;;;;89.50;64.00;;;;;4.05;100.00;102367.44;4998835;28;45477;-80
2023/02/15 05:08:36;;;;;;;;;82.75;58.50;;;;;4.01;100.00;102369.88;5015375;28;72865;-80
2023/02/15 05:11:02;;;;;;;;;89.50;62.50;;;;;3.96;100.00;102372.34;5016314;28;45477;-80
2023/02/15 05:13:27;;;;;;;;;96.00;64.50;;;;;3.91;100.00;102371.38;5015636;28;53320;-80
2023/02/15 05:15:52;;;;;;;;;88.75;63.75;;;;;3.90;100.00;102371.31;4997737;28;61444;-80
2023/02/15 05:18:19;;;;;;;;;92.50;66.25;;;;;3.90;100.00;102361.91;5016179;28;45638;-80
2023/02/15 05:20:45;;;;;;;;;100.25;71.00;;;;;3.87;100.00;102359.25;4998493;28;45443;-80
2023/02/15 05:23:10;;;;;;;;;96.75;67.25;;;;;3.84;100.00;102360.03;5015580;28;57781;-79
2023/02/15 05:28:19;;;;;;;;;93.00;67.25;;;;;3.79;100.00;102358.16;5000796;28;46003;-80
2023/02/15 05:30:49;;;;;;;;;87.50;62.00;;;;;3.79;100.00;102353.91;5015986;28;45439;-80
2023/02/15 05:33:14;;;;;;;;;91.75;66.00;;;;;3.80;100.00;102357.34;5016236;28;45391;-80
2023/02/15 05:35:40;;;;;;;;;87.75;64.75;;;;;3.78;100.00;102361.59;5016048;28;45337;-80
2023/02/15 05:38:05;;;;;;;;;89.00;65.00;;;;;3.73;100.00;102351.16;5026139;28;70059;-79
2023/02/15 05:40:30;;;;;;;;;87.33;63.33;;;;;3.69;100.00;102355.34;5027986;28;64295;-79
2023/02/15 05:42:56;;;;;;;;;85.25;63.00;;;;;3.66;100.00;102354.44;5015681;28;63723;-79
2023/02/15 05:45:22;;;;;;;;;93.00;66.00;;;;;3.61;100.00;102354.31;5016440;28;45574;-80
2023/02/15 05:47:47;;;;;;;;;93.25;66.50;;;;;3.62;100.00;102356.06;5015047;28;64543;-80
2023/02/15 05:50:12;;;;;;;;;90.00;67.00;;;;;3.61;100.00;102353.44;5027457;28;59313;-80
2023/02/15 05:52:37;;;;;;;;;86.75;63.50;;;;;3.55;100.00;102346.44;5017241;28;66071;-80
2023/02/15 05:55:04;;;;;;;;;96.00;65.67;;;;;3.57;100.00;102355.06;5035236;28;67097;-80
2023/02/15 05:57:30;;;;;;;;;83.50;60.50;;;;;3.55;100.00;102354.16;5017695;28;47502;-79
2023/02/15 05:59:55;;;;;;;;;91.00;66.50;;;;;3.52;100.00;102336.03;5017724;28;45560;-80
2023/02/15 06:02:20;;;;;;;;;80.50;55.00;;;;;3.54;100.00;102336.09;5035713;28;45483;-80
2023/02/15 06:04:46;;;;;;;;;86.33;65.33;;;;;3.48;100.00;102332.50;5034819;28;67451;-79
2023/02/15 06:07:11;;;;;;;;;86.75;61.25;;;;;3.46;100.00;102323.03;5035433;28;46154;-79
2023/02/15 06:09:36;;;;;;;;;91.25;68.25;;;;;3.51;100.00;102325.69;5034841;28;61523;-80
2023/02/15 06:12:02;;;;;;;;;80.50;62.25;;;;;3.49;100.00;102329.13;5034829;28;52159;-80
2023/02/15 06:14:27;;;;;;;;;84.00;64.33;;;;;3.49;100.00;102330.81;5017668;28;45418;-80
2023/02/15 06:16:52;;;;;;;;;93.50;67.75;;;;;3.40;100.00;102323.75;5034896;28;60520;-79
2023/02/15 06:19:18;;;;;;;;;92.67;67.67;;;;;3.43;100.00;102334.09;5034546;28;66143;-79
2023/02/15 06:21:44;;;;;;;;;93.25;67.00;;;;;3.38;100.00;102325.41;5035496;28;45573;-80
2023/02/15 06:24:09;;;;;;;;;37.75;27.50;;;;;3.40;100.00;102334.03;5017883;28;45446;-80
2023/02/15 06:26:34;;;;;;;;;93.00;66.00;;;;;3.41;100.00;102346.06;5034821;28;45477;-80
2023/02/15 06:29:00;;;;;;;;;89.75;66.50;;;;;3.40;100.00;102351.16;5016996;28;59549;-80
2023/02/15 06:31:25;;;;;;;;;91.25;66.00;;;;;3.40;100.00;102344.31;5035317;28;45280;-79
2023/02/15 06:33:51;;;;;;;;;94.25;68.75;;;;;3.40;100.00;102348.59;5017540;28;45350;-80
2023/02/15 06:36:16;;;;;;;;;92.75;64.50;;;;;3.37;100.00;102343.38;5016600;28;70063;-80
2023/02/15 06:38:41;;;;;;;;;95.25;66.00;;;;;3.37;100.00;102345.94;5034327;28;64749;-80
2023/02/15 06:41:07;;;;;;;;;94.67;67.00;;;;;3.34;100.00;102341.56;5016438;28;62971;-80
2023/02/15 06:43:33;;;;;;;;;97.50;66.00;;;;;3.35;100.00;102343.31;5035161;28;45284;-80
2023/02/15 06:45:59;;;;;;;;;86.25;65.50;;;;;3.33;100.00;102350.16;5034973;28;46497;-80
2023/02/15 06:48:24;;;;;;;;;98.00;69.50;;;;;3.33;100.00;102352.72;5035009;28;45366;-80
2023/02/15 06:50:50;;;;;;;;;91.75;63.75;;;;;3.29;100.00;102340.59;5035709;28;54655;-79
2023/02/15 06:53:15;;;;;;;;;88.25;67.25;;;;;3.29;100.00;102345.75;5038277;28;45395;-80
2023/02/15 06:55:40;;;;;;;;;90.00;69.00;;;;;3.28;100.00;102352.56;5037004;28;73024;-80
2023/02/15 06:58:05;;;;;;;;;96.00;66.00;;;;;3.35;100.00;102363.06;5037561;28;64030;-79
2023/02/15 07:00:31;;;;;;;;;92.67;69.00;;;;;3.37;100.00;102375.13;5037729;28;59056;-80
2023/02/15 07:02:59;;;;;;;;;93.25;66.00;;;;;3.40;100.00;102385.53;5037578;28;64883;-80
2023/02/15 07:05:30;;;;;;;;;94.25;66.50;;;;;3.45;100.00;102385.63;5020426;28;45532;-80
2023/02/15 07:07:58;;;;;;;;;90.25;67.00;;;;;3.41;100.00;102373.50;5020830;28;45826;-78
2023/02/15 07:10:25;;;;;;;;;91.75;68.75;;;;;3.55;100.00;102390.19;5038293;28;45324;-80
2023/02/15 07:12:50;;;;;;;;;96.75;67.50;;;;;3.60;100.00;102377.44;5038055;28;45546;-80
2023/02/15 07:15:17;;;;;;;;;98.25;66.75;;;;;3.67;100.00;102379.34;5037699;28;46117;-79
2023/02/15 07:17:43;;;;;;;;;98.75;69.25;;;;;3.73;100.00;102383.78;5020220;28;45807;-80
2023/02/15 07:20:15;;;;;;;;;93.25;67.50;;;;;3.77;100.00;102390.75;5020222;28;45430;-79
2023/02/15 07:22:40;;;;;;;;;95.75;66.00;;;;;3.81;100.00;102385.72;5019496;28;45288;-79
2023/02/15 07:25:08;;;;;;;;;91.75;67.00;;;;;3.84;100.00;102384.91;5037868;28;46149;-80
2023/02/15 07:27:34;;;;;;;;;102.00;68.75;;;;;3.87;100.00;102392.75;5059099;28;45187;-80
2023/02/15 07:29:59;;;;;;;;;96.00;69.25;;;;;3.88;100.00;102395.34;5046924;28;45438;-79
2023/02/15 07:32:28;;;;;;;;;91.25;68.75;;;;;3.92;100.00;102396.31;5020747;28;45623;-80
2023/02/15 07:34:54;;;;;;;;;96.75;69.00;;;;;3.87;100.00;102385.88;5038312;28;46077;-81
2023/02/15 07:37:19;;;;;;;;;96.50;72.00;;;;;3.99;100.00;102390.47;5037474;28;45463;-79
2023/02/15 07:39:44;;;;;;;;;97.50;71.75;;;;;4.02;100.00;102385.38;5037798;28;45284;-81
2023/02/15 07:42:17;;;;;;;;;102.00;70.67;;;;;4.05;100.00;102382.88;5020086;28;62441;-86
2023/02/15 07:44:42;;;;;;;;;91.50;67.75;;;;;4.18;100.00;102401.22;5004228;28;47016;-85
2023/02/15 07:47:11;;;;;;;;;96.00;70.50;;;;;4.21;100.00;102398.72;5037852;28;45479;-87
2023/02/15 07:49:36;;;;;;;;;101.75;70.00;;;;;4.13;100.00;102367.59;5004850;28;45351;-89
2023/02/15 07:52:01;;;;;;;;;94.00;66.75;;;;;4.23;100.00;102368.69;5003605;28;45233;-86
2023/02/15 07:54:27;;;;;;;;;97.25;71.25;;;;;4.25;100.00;102367.00;5019977;28;50864;-84
2023/02/15 07:56:52;;;;;;;;;92.25;69.00;;;;;4.51;100.00;102398.56;5019582;28;45424;-83
2023/02/15 07:59:18;;;;;;;;;91.25;68.25;;;;;4.61;100.00;102400.50;5036861;28;58364;-85
2023/02/15 08:01:43;;;;;;;;;92.75;66.00;;;;;4.71;100.00;102405.88;5036882;28;56884;-90
2023/02/15 08:04:10;;;;;;;;;92.75;67.75;;;;;4.79;100.00;102400.06;5019566;28;47284;-82
2023/02/15 08:06:36;;;;;;;;;97.25;69.25;;;;;4.87;100.00;102404.47;5019599;28;45916;-85
2023/02/15 08:09:07;;;;;;;;;96.00;71.00;;;;;4.94;100.00;102411.53;5019778;28;45479;-85
2023/02/15 08:11:37;;;;;;;;;58.25;29.25;;;;;4.98;100.00;102411.63;5019712;28;45617;-85
2023/02/15 08:14:20;;;;;;;;;102.50;73.75;;;;;5.03;100.00;102410.03;5037482;28;46315;-83
2023/02/15 08:16:54;;;;;;;;;99.50;74.25;;;;;5.03;100.00;102402.28;5037288;28;45757;-86
2023/02/15 08:19:21;;;;;;;;;103.25;76.25;;;;;5.13;100.00;102403.34;5018033;28;45906;-82
2023/02/15 08:22:06;;;;;;;;;100.50;74.00;;;;;5.11;100.00;102391.22;5017312;28;45565;-83
2023/02/15 08:24:34;;;;;;;;;100.00;72.75;;;;;5.14;100.00;102384.41;4999628;28;46596;-84
2023/02/15 08:27:02;;;;;;;;;100.00;71.25;;;;;5.26;100.00;102393.25;5018610;28;45758;-84
2023/02/15 08:29:29;;;;;;;;;103.25;71.25;;;;;5.31;100.00;102391.63;5037017;28;45227;-83
2023/02/15 08:31:58;;;;;;;;;100.50;72.25;;;;;5.45;100.00;102400.50;5019196;28;45432;-83
2023/02/15 08:34:24;;;;;;;;;91.75;64.50;;;;;5.42;100.00;102384.94;5036415;28;46231;-83
2023/02/15 08:36:50;;;;;;;;;106.50;76.25;;;;;5.49;100.00;102386.81;5036214;28;45382;-83
2023/02/15 08:39:16;;;;;;;;;104.25;73.50;;;;;5.61;100.00;102405.13;5018789;28;45389;-83
2023/02/15 08:41:44;;;;;;;;;94.50;66.75;;;;;5.71;100.00;102402.72;5018557;28;45276;-83
2023/02/15 08:44:10;;;;;;;;;93.75;69.25;;;;;5.67;100.00;102388.88;5018267;28;45540;-84
2023/02/15 08:46:39;;;;;;;;;97.00;71.50;;;;;5.68;100.00;102387.13;5018425;28;45364;-84
2023/02/15 08:49:04;;;;;;;;;97.75;72.00;;;;;5.76;100.00;102396.78;5036498;28;45468;-83
2023/02/15 08:51:33;;;;;;;;;98.50;71.25;;;;;5.84;100.00;102406.38;5001522;28;45616;-83
2023/02/15 08:54:00;;;;;;;;;98.00;71.00;;;;;5.75;100.00;102387.28;5018309;28;45367;-83
2023/02/15 08:56:28;;;;;;;;;77.50;50.00;;;;;5.94;100.00;102413.44;5033552;28;45389;-82
2023/02/15 08:58:54;;;;;;;;;91.25;66.50;;;;;6.00;100.00;102404.13;5011511;28;45559;-83
2023/02/15 09:01:25;;;;;;;;;94.75;72.00;;;;;6.06;100.00;102400.75;5037391;28;45536;-83
2023/02/15 09:03:55;;;;;;;;;101.50;70.50;;;;;6.09;100.00;102399.94;5014846;28;46279;-81
2023/02/15 09:06:24;;;;;;;;;97.50;68.00;;;;;6.05;100.00;102380.91;5027427;28;45818;-86
2023/02/15 09:08:50;;;;;;;;;104.00;74.00;;;;;6.10;100.00;102374.09;5037781;28;45382;-85
2023/02/15 09:11:22;;;;;;;;;102.50;74.75;;;;;6.09;100.00;102368.91;5022198;28;45400;-86
2023/02/15 09:14:19;;;;;;;;;96.25;70.75;;;;;6.33;100.00;102384.81;5044736;28;46691;-85
2023/02/15 09:16:48;;;;;;;;;99.50;69.50;;;;;6.36;100.00;102377.09;5019454;28;45358;-85
2023/02/15 09:19:17;;;;;;;;;102.75;74.00;;;;;6.42;100.00;102370.25;5016415;28;45300;-86
2023/02/15 09:21:43;;;;;;;;;100.75;67.50;;;;;6.59;100.00;102374.84;4998893;28;45519;-86
2023/02/15 09:24:10;;;;;;;;;94.00;69.25;;;;;6.76;100.00;102393.19;4996657;28;47883;-82
2023/02/15 09:26:40;;;;;;;;;88.00;66.50;;;;;6.85;100.00;102395.00;5036112;28;45403;-85
2023/02/15 09:29:05;;;;;;;;;98.00;69.25;;;;;6.94;100.00;102399.44;5016801;28;45417;-84
2023/02/15 09:31:33;;;;;;;;;98.75;68.25;;;;;7.04;100.00;102397.81;4998590;28;45334;-84
2023/02/15 09:34:01;;;;;;;;;95.00;68.00;;;;;7.30;100.00;102406.78;5010450;28;45586;-84
2023/02/15 09:36:30;;;;;;;;;97.75;66.50;;;;;7.47;100.00;102412.16;5001154;28;45402;-84
2023/02/15 09:39:03;;;;;;;;;91.00;64.25;;;;;7.65;100.00;102411.47;5035757;28;45363;-85
2023/02/15 09:42:02;;;;;;;;;96.50;64.25;;;;;7.82;100.00;102409.06;5035684;28;45571;-85
2023/02/15 09:44:53;;;;;;;;;91.25;67.00;;;;;7.97;100.00;102410.91;5017389;28;48309;-84
2023/02/15 09:47:27;;;;;;;;;96.50;65.75;;;;;8.11;100.00;102417.06;5035394;28;45885;-84
2023/02/15 09:50:16;;;;;;;;;96.00;69.25;;;;;8.23;100.00;102413.72;5034314;28;45422;-84
2023/02/15 09:53:03;;;;;;;;;84.50;65.00;;;;;8.36;100.00;102414.69;5022890;28;45563;-84
2023/02/15 09:55:28;;;;;;;;;91.25;63.50;;;;;8.46;100.00;102410.44;4997478;28;47205;-83
2023/02/15 09:58:28;;;;;;;;;90.33;66.00;;;;;8.52;100.00;102395.78;5015120;28;45212;-84
2023/02/15 10:01:23;;;;;;;;;88.25;65.50;;;;;8.80;100.00;102405.44;5015879;28;45611;-83
2023/02/15 10:03:51;;;;;;;;;97.00;67.75;;;;;8.98;100.00;102409.88;5029297;28;45533;-83
2023/02/15 10:06:32;;;;;;;;;95.00;67.25;;;;;9.09;100.00;102410.78;5017180;28;47125;-83
2023/02/15 10:09:12;;;;;;;;;95.00;67.75;;;;;9.13;100.00;102402.13;5014983;28;45446;-83
2023/02/15 10:11:45;;;;;;;;;98.00;70.25;;;;;9.30;100.00;102418.66;5010463;28;45410;-84
2023/02/15 10:14:52;;;;;;;;;94.00;64.75;;;;;9.42;100.00;102414.34;5017489;28;45376;-84
2023/02/15 10:17:26;;;;;;;;;90.25;65.00;;;;;9.59;100.00;102417.84;5010202;28;46945;-82
2023/02/15 10:20:18;;;;;;;;;94.75;68.00;;;;;9.74;100.00;102424.81;5026508;28;46037;-83
2023/02/15 10:23:13;;;;;;;;;89.50;65.25;;;;;9.91;100.00;102416.16;5013391;28;45477;-82
2023/02/15 10:25:47;;;;;;;;;93.00;64.25;;;;;9.94;100.00;102400.56;5021660;28;45299;-83
2023/02/15 10:28:17;;;;;;;;;90.50;67.00;;;;;10.11;100.00;102424.00;5040611;28;46055;-83
2023/02/15 10:30:48;;;;;;;;;93.50;65.25;;;;;10.13;100.00;102424.84;5040661;28;45878;-83
2023/02/15 10:33:27;;;;;;;;;92.00;66.25;;;;;10.16;100.00;102417.03;5040667;28;45438;-83
2023/02/15 10:36:05;;;;;;;;;89.75;65.00;;;;;10.27;100.00;102433.53;5040620;28;45339;-84
2023/02/15 10:38:43;;;;;;;;;87.00;64.00;;;;;10.22;100.00;102407.50;5023834;28;45566;-84
2023/02/15 10:41:27;;;;;;;;;81.75;63.25;;;;;10.40;100.00;102414.47;5017649;28;45676;-83
2023/02/15 10:44:30;;;;;;;;;86.75;62.75;;;;;10.49;100.00;102417.91;5020583;28;45516;-83
2023/02/15 10:47:10;;;;;;;;;91.50;67.50;;;;;10.56;100.00;102411.81;5038051;28;45476;-83
2023/02/15 10:49:38;;;;;;;;;86.75;65.00;;;;;10.64;100.00;102404.84;5037895;28;45867;-83
2023/02/15 10:52:29;;;;;;;;;84.00;63.50;;;;;10.73;100.00;102409.16;5033450;28;45446;-83
2023/02/15 10:55:16;;;;;;;;;98.50;62.75;;;;;10.82;100.00;102411.75;5000471;28;45383;-83
2023/02/15 10:58:10;;;;;;;;;80.50;60.25;;;;;10.94;100.00;102414.31;5003162;28;45506;-83
2023/02/15 11:00:42;;;;;;;;;76.25;60.75;;;;;10.98;100.00;102389.13;5031480;28;46470;-83
2023/02/15 11:03:17;;;;;;;;;85.00;60.75;;;;;11.28;100.00;102405.50;5022932;28;45446;-81
2023/02/15 11:05:52;;;;;;;;;89.00;63.25;;;;;11.35;100.00;102391.56;5038375;28;45410;-82
2023/02/15 11:08:18;;;;;;;;;86.25;61.50;;;;;11.57;100.00;102406.19;5018376;28;45385;-82
2023/02/15 11:10:58;;;;;;;;;80.50;59.75;;;;;11.66;100.00;102384.38;4983034;28;70537;-82
2023/02/15 11:13:27;;;;;;;;;86.50;63.75;;;;;11.96;100.00;102393.75;5000030;28;46029;-82
2023/02/15 11:16:00;;;;;;;;;87.50;64.25;;;;;12.18;100.00;102394.44;5016972;28;45480;-83
2023/02/15 11:18:36;;;;;;;;;88.00;61.25;;;;;12.46;100.00;102395.91;5003117;28;45698;-82
2023/02/15 11:21:08;;;;;;;;;86.00;62.75;;;;;12.73;100.00;102384.28;5003652;28;45467;-82
2023/02/15 11:23:35;;;;;;;;;83.25;60.50;;;;;13.05;100.00;102383.88;5020874;28;46026;-82
2023/02/15 11:26:21;;;;;;;;;82.25;58.50;;;;;13.33;100.00;102373.06;5019560;28;45484;-83
2023/02/15 11:28:55;;;;;;;;;80.75;58.75;;;;;13.67;100.00;102383.03;5019539;28;45590;-82
2023/02/15 11:31:26;;;;;;;;;81.50;58.50;;;;;14.02;100.00;102365.88;5002933;28;47087;-81
2023/02/15 11:34:31;;;;;;;;;83.75;60.50;;;;;15.44;100.00;102383.16;5009607;28;45767;-81
2023/02/15 11:37:03;;;;;;;;;83.25;59.25;;;;;17.35;100.00;102369.28;5016167;28;45216;-82
2023/02/15 11:39:28;;;;;;;;;83.00;56.00;;;;;19.02;100.00;102369.66;5015949;28;45604;-82
2023/02/15 11:41:59;;;;;;;;;78.00;58.00;;;;;20.31;95.43;102359.09;5015929;28;50004;-82
2023/02/15 11:44:35;;;;;;;;;73.75;53.75;;;;;21.59;90.38;102367.28;5015579;28;45372;-82